PWSweather.com
Personal Weather Stations
Station Observations
AZALEAPK1
San Diego, CA 92105

San Diego, CA 92105

Lat: 32.736, Lon: -117.108

Elevation: 302

Station Type: LaCrosse WS-2813U-IT

High Low Average
Temperature 73.1°F22.8°C 57.4°F14.1°C 62.9°F17.2°C
Dew Point 59.0°F15.0°C 52.1°F11.2°C 54.9°F12.7°C
Winds 8.4 mph 13.5 kmh Calm Calm 1.0 mph NNE1.6 kmh NNE
Wind Gusts 9.2 mph14.8 kmh -- 3.0 mph4.8 kmh
Humidity 86% 57% 76%
Pressure 30.07 in1018.3 mb 29.99 in1015.6 mb -
Precipitation 0.00 in0.0 mm - -
Hour Temp Dew Point Humidity Winds Wind Gusts Pressure Precip Precip Rate Daily Precip Total
12:04 AM 61.0°F16.1°C 55.2°F12.9°C 81% Calm Calm 2.7 mph4.3 kmh 30.05 in1017.6 mb 0.00 in0.0 mm 0.00 in0.0 mm 0.00 in0.0 mm
12:10 AM 61.0°F16.1°C 55.5°F13.1°C 82% 0.4 mph NNE0.6 kmh NNE 0.9 mph1.4 kmh 30.05 in1017.6 mb 0.00 in0.0 mm 0.00 in0.0 mm 0.00 in0.0 mm
12:15 AM 60.8°F16.0°C 55.4°F13.0°C 82% 0.5 mph NNE0.8 kmh NNE 1.8 mph2.9 kmh 30.05 in1017.6 mb 0.00 in0.0 mm 0.00 in0.0 mm 0.00 in0.0 mm
12:21 AM 60.8°F16.0°C 55.4°F13.0°C 82% 1.6 mph NNE2.6 kmh NNE 2.2 mph3.5 kmh 30.05 in1017.6 mb 0.00 in0.0 mm 0.00 in0.0 mm 0.00 in0.0 mm
12:26 AM 60.8°F16.0°C 55.4°F13.0°C 82% 0.6 mph NNE1.0 kmh NNE 2.2 mph3.5 kmh 30.05 in1017.6 mb 0.00 in0.0 mm 0.00 in0.0 mm 0.00 in0.0 mm
12:32 AM 60.8°F16.0°C 55.4°F13.0°C 82% 0.4 mph NNE0.6 kmh NNE 1.8 mph2.9 kmh 30.04 in1017.3 mb 0.00 in0.0 mm 0.00 in0.0 mm 0.00 in0.0 mm
12:37 AM 60.8°F16.0°C 55.4°F13.0°C 82% 1.2 mph NNE1.9 kmh NNE 2.0 mph3.2 kmh 30.04 in1017.3 mb 0.00 in0.0 mm 0.00 in0.0 mm 0.00 in0.0 mm
12:42 AM 60.7°F15.9°C 55.2°F12.9°C 82% 0.9 mph NNE1.4 kmh NNE 2.5 mph4.0 kmh 30.04 in1017.3 mb 0.00 in0.0 mm 0.00 in0.0 mm 0.00 in0.0 mm
12:47 AM 60.7°F15.9°C 55.2°F12.9°C 82% 2.5 mph NNE4.0 kmh NNE 2.5 mph4.0 kmh 30.04 in1017.3 mb 0.00 in0.0 mm 0.00 in0.0 mm 0.00 in0.0 mm
12:52 AM 60.7°F15.9°C 55.2°F12.9°C 82% 0.2 mph NNE0.3 kmh NNE 2.5 mph4.0 kmh 30.04 in1017.3 mb 0.00 in0.0 mm 0.00 in0.0 mm 0.00 in0.0 mm
12:58 AM 60.5°F15.8°C 55.4°F13.0°C 83% 0.3 mph NNE0.5 kmh NNE 1.8 mph2.9 kmh 30.04 in1017.3 mb 0.00 in0.0 mm 0.00 in0.0 mm 0.00 in0.0 mm
01:04 AM 60.5°F15.8°C 55.4°F13.0°C 83% 0.2 mph NNE0.3 kmh NNE 1.8 mph2.9 kmh 30.04 in1017.3 mb 0.00 in0.0 mm 0.00 in0.0 mm 0.00 in0.0 mm
01:09 AM 60.5°F15.8°C 55.4°F13.0°C 83% 0.7 mph NNE1.1 kmh NNE 1.8 mph2.9 kmh 30.03 in1016.9 mb 0.00 in0.0 mm 0.00 in0.0 mm 0.00 in0.0 mm
01:15 AM 60.3°F15.7°C 55.2°F12.9°C 83% 0.3 mph NNE0.5 kmh NNE 1.8 mph2.9 kmh 30.03 in1016.9 mb 0.00 in0.0 mm 0.00 in0.0 mm 0.00 in0.0 mm
01:20 AM 60.1°F15.6°C 55.0°F12.8°C 83% 0.3 mph NNE0.5 kmh NNE 1.6 mph2.6 kmh 30.03 in1016.9 mb 0.00 in0.0 mm 0.00 in0.0 mm 0.00 in0.0 mm
01:25 AM 60.1°F15.6°C 55.0°F12.8°C 83% 0.1 mph NNE0.2 kmh NNE 1.6 mph2.6 kmh 30.03 in1016.9 mb 0.00 in0.0 mm 0.00 in0.0 mm 0.00 in0.0 mm
01:30 AM 60.1°F15.6°C 55.0°F12.8°C 83% Calm Calm 1.1 mph1.8 kmh 30.03 in1016.9 mb 0.00 in0.0 mm 0.00 in0.0 mm 0.00 in0.0 mm
01:36 AM 59.9°F15.5°C 54.8°F12.7°C 83% 0.1 mph NNE0.2 kmh NNE 1.1 mph1.8 kmh 30.03 in1016.9 mb 0.00 in0.0 mm 0.00 in0.0 mm 0.00 in0.0 mm
01:44 AM 59.9°F15.5°C 54.8°F12.7°C 83% 0.4 mph NNE0.6 kmh NNE 1.1 mph1.8 kmh 30.03 in1016.9 mb 0.00 in0.0 mm 0.00 in0.0 mm 0.00 in0.0 mm
01:49 AM 59.9°F15.5°C 54.8°F12.7°C 83% Calm Calm 1.1 mph1.8 kmh 30.03 in1016.9 mb 0.00 in0.0 mm 0.00 in0.0 mm 0.00 in0.0 mm
01:54 AM 59.8°F15.4°C 54.6°F12.6°C 83% 0.6 mph NNE1.0 kmh NNE 1.8 mph2.9 kmh 30.03 in1016.9 mb 0.00 in0.0 mm 0.00 in0.0 mm 0.00 in0.0 mm
02:00 AM 59.8°F15.4°C 54.6°F12.6°C 83% 0.4 mph NNE0.6 kmh NNE 1.8 mph2.9 kmh 30.03 in1016.9 mb 0.00 in0.0 mm 0.00 in0.0 mm 0.00 in0.0 mm
02:06 AM 59.8°F15.4°C 54.6°F12.6°C 83% 0.5 mph NNE0.8 kmh NNE 1.3 mph2.1 kmh 30.03 in1016.9 mb 0.00 in0.0 mm 0.00 in0.0 mm 0.00 in0.0 mm
02:11 AM 59.6°F15.3°C 54.5°F12.5°C 83% 0.1 mph NNE0.2 kmh NNE 1.3 mph2.1 kmh 30.03 in1016.9 mb 0.00 in0.0 mm 0.00 in0.0 mm 0.00 in0.0 mm
02:16 AM 59.6°F15.3°C 54.5°F12.5°C 83% 0.5 mph NNE0.8 kmh NNE 1.1 mph1.8 kmh 30.02 in1016.6 mb 0.00 in0.0 mm 0.00 in0.0 mm 0.00 in0.0 mm
02:22 AM 59.4°F15.2°C 54.3°F12.4°C 83% 0.8 mph NNE1.3 kmh NNE 1.8 mph2.9 kmh 30.02 in1016.6 mb 0.00 in0.0 mm 0.00 in0.0 mm 0.00 in0.0 mm
02:27 AM 59.4°F15.2°C 54.3°F12.4°C 83% 0.2 mph NNE0.3 kmh NNE 1.8 mph2.9 kmh 30.02 in1016.6 mb 0.00 in0.0 mm 0.00 in0.0 mm 0.00 in0.0 mm
02:32 AM 59.2°F15.1°C 54.1°F12.3°C 83% 0.3 mph NNE0.5 kmh NNE 1.6 mph2.6 kmh 30.02 in1016.6 mb 0.00 in0.0 mm 0.00 in0.0 mm 0.00 in0.0 mm
02:39 AM 59.0°F15.0°C 53.9°F12.2°C 83% 0.1 mph NNE0.2 kmh NNE 1.3 mph2.1 kmh 30.02 in1016.6 mb 0.00 in0.0 mm 0.00 in0.0 mm 0.00 in0.0 mm
02:44 AM 59.0°F15.0°C 54.2°F12.3°C 84% 0.8 mph NNE1.3 kmh NNE 1.8 mph2.9 kmh 30.01 in1016.3 mb 0.00 in0.0 mm 0.00 in0.0 mm 0.00 in0.0 mm
02:49 AM 59.0°F15.0°C 54.2°F12.3°C 84% 1.0 mph NNE1.6 kmh NNE 1.8 mph2.9 kmh 30.02 in1016.6 mb 0.00 in0.0 mm 0.00 in0.0 mm 0.00 in0.0 mm
02:54 AM 58.9°F14.9°C 54.0°F12.2°C 84% 0.1 mph NNE0.2 kmh NNE 1.8 mph2.9 kmh 30.02 in1016.6 mb 0.00 in0.0 mm 0.00 in0.0 mm 0.00 in0.0 mm
03:00 AM 58.7°F14.8°C 53.8°F12.1°C 84% Calm Calm 1.8 mph2.9 kmh 30.02 in1016.6 mb 0.00 in0.0 mm 0.00 in0.0 mm 0.00 in0.0 mm
03:06 AM 58.5°F14.7°C 53.6°F12.0°C 84% 0.2 mph NNE0.3 kmh NNE 1.1 mph1.8 kmh 30.01 in1016.3 mb 0.00 in0.0 mm 0.00 in0.0 mm 0.00 in0.0 mm
03:11 AM 58.5°F14.7°C 53.6°F12.0°C 84% 0.6 mph NNE1.0 kmh NNE 1.1 mph1.8 kmh 30.01 in1016.3 mb 0.00 in0.0 mm 0.00 in0.0 mm 0.00 in0.0 mm
03:16 AM 58.5°F14.7°C 53.6°F12.0°C 84% 0.2 mph NNE0.3 kmh NNE 1.1 mph1.8 kmh 30.01 in1016.3 mb 0.00 in0.0 mm 0.00 in0.0 mm 0.00 in0.0 mm
03:21 AM 58.5°F14.7°C 53.6°F12.0°C 84% Calm Calm 0.7 mph1.1 kmh 30.01 in1016.3 mb 0.00 in0.0 mm 0.00 in0.0 mm 0.00 in0.0 mm
03:26 AM 58.3°F14.6°C 53.5°F11.9°C 84% 0.2 mph NNE0.3 kmh NNE 0.4 mph0.6 kmh 30.01 in1016.3 mb 0.00 in0.0 mm 0.00 in0.0 mm 0.00 in0.0 mm
03:31 AM 58.3°F14.6°C 53.5°F11.9°C 84% Calm Calm 0.4 mph0.6 kmh 30.02 in1016.6 mb 0.00 in0.0 mm 0.00 in0.0 mm 0.00 in0.0 mm
03:36 AM 58.3°F14.6°C 53.8°F12.1°C 85% Calm Calm 0.4 mph0.6 kmh 30.01 in1016.3 mb 0.00 in0.0 mm 0.00 in0.0 mm 0.00 in0.0 mm
03:44 AM 58.3°F14.6°C 53.8°F12.1°C 85% 0.7 mph NNE1.1 kmh NNE 1.6 mph2.6 kmh 30.01 in1016.3 mb 0.00 in0.0 mm 0.00 in0.0 mm 0.00 in0.0 mm
03:50 AM 58.1°F14.5°C 53.6°F12.0°C 85% 0.3 mph NNE0.5 kmh NNE 1.6 mph2.6 kmh 30.01 in1016.3 mb 0.00 in0.0 mm 0.00 in0.0 mm 0.00 in0.0 mm
03:55 AM 58.1°F14.5°C 53.6°F12.0°C 85% Calm Calm 1.3 mph2.1 kmh 30.01 in1016.3 mb 0.00 in0.0 mm 0.00 in0.0 mm 0.00 in0.0 mm
04:00 AM 58.1°F14.5°C 53.6°F12.0°C 85% Calm Calm 1.1 mph1.8 kmh 30.02 in1016.6 mb 0.00 in0.0 mm 0.00 in0.0 mm 0.00 in0.0 mm
04:05 AM 58.0°F14.4°C 53.5°F11.9°C 85% 0.4 mph NNE0.6 kmh NNE 1.1 mph1.8 kmh 30.02 in1016.6 mb 0.00 in0.0 mm 0.00 in0.0 mm 0.00 in0.0 mm
04:10 AM 58.0°F14.4°C 53.5°F11.9°C 85% Calm Calm 1.1 mph1.8 kmh 30.01 in1016.3 mb 0.00 in0.0 mm 0.00 in0.0 mm 0.00 in0.0 mm
04:16 AM 58.1°F14.5°C 53.6°F12.0°C 85% Calm Calm 1.8 mph2.9 kmh 30.01 in1016.3 mb 0.00 in0.0 mm 0.00 in0.0 mm 0.00 in0.0 mm
04:21 AM 58.1°F14.5°C 53.6°F12.0°C 85% Calm Calm 1.8 mph2.9 kmh 30.01 in1016.3 mb 0.00 in0.0 mm 0.00 in0.0 mm 0.00 in0.0 mm
04:26 AM 58.1°F14.5°C 53.6°F12.0°C 85% Calm Calm 1.3 mph2.1 kmh 30.01 in1016.3 mb 0.00 in0.0 mm 0.00 in0.0 mm 0.00 in0.0 mm
04:31 AM 58.1°F14.5°C 53.6°F12.0°C 85% 0.2 mph NNE0.3 kmh NNE 1.3 mph2.1 kmh 30.01 in1016.3 mb 0.00 in0.0 mm 0.00 in0.0 mm 0.00 in0.0 mm
04:36 AM 58.0°F14.4°C 53.8°F12.1°C 86% 0.3 mph NNE0.5 kmh NNE 1.8 mph2.9 kmh 30.01 in1016.3 mb 0.00 in0.0 mm 0.00 in0.0 mm 0.00 in0.0 mm
04:41 AM 58.0°F14.4°C 53.8°F12.1°C 86% 0.3 mph NNE0.5 kmh NNE 1.8 mph2.9 kmh 30.01 in1016.3 mb 0.00 in0.0 mm 0.00 in0.0 mm 0.00 in0.0 mm
04:46 AM 58.0°F14.4°C 53.8°F12.1°C 86% 0.5 mph NNE0.8 kmh NNE 1.6 mph2.6 kmh 30.01 in1016.3 mb 0.00 in0.0 mm 0.00 in0.0 mm 0.00 in0.0 mm
04:51 AM 58.0°F14.4°C 53.8°F12.1°C 86% 0.9 mph NNE1.4 kmh NNE 2.5 mph4.0 kmh 30.02 in1016.6 mb 0.00 in0.0 mm 0.00 in0.0 mm 0.00 in0.0 mm
04:56 AM 57.8°F14.3°C 53.7°F12.1°C 86% 1.8 mph NNE2.9 kmh NNE 2.5 mph4.0 kmh 30.02 in1016.6 mb 0.00 in0.0 mm 0.00 in0.0 mm 0.00 in0.0 mm
05:02 AM 57.8°F14.3°C 53.7°F12.1°C 86% 0.2 mph NNE0.3 kmh NNE 2.5 mph4.0 kmh 30.02 in1016.6 mb 0.00 in0.0 mm 0.00 in0.0 mm 0.00 in0.0 mm
05:07 AM 57.8°F14.3°C 53.7°F12.1°C 86% 1.6 mph NNE2.6 kmh NNE 2.5 mph4.0 kmh 30.02 in1016.6 mb 0.00 in0.0 mm 0.00 in0.0 mm 0.00 in0.0 mm
05:12 AM 57.8°F14.3°C 53.7°F12.1°C 86% 0.1 mph NNE0.2 kmh NNE 2.5 mph4.0 kmh 30.02 in1016.6 mb 0.00 in0.0 mm 0.00 in0.0 mm 0.00 in0.0 mm
05:17 AM 57.8°F14.3°C 53.7°F12.1°C 86% 0.2 mph NNE0.3 kmh NNE 1.8 mph2.9 kmh 30.02 in1016.6 mb 0.00 in0.0 mm 0.00 in0.0 mm 0.00 in0.0 mm
05:22 AM 58.0°F14.4°C 53.8°F12.1°C 86% 0.7 mph NNE1.1 kmh NNE 1.3 mph2.1 kmh 30.02 in1016.6 mb 0.00 in0.0 mm 0.00 in0.0 mm 0.00 in0.0 mm
05:28 AM 58.0°F14.4°C 53.8°F12.1°C 86% 0.2 mph NNE0.3 kmh NNE 1.3 mph2.1 kmh 30.02 in1016.6 mb 0.00 in0.0 mm 0.00 in0.0 mm 0.00 in0.0 mm
05:33 AM 58.0°F14.4°C 53.8°F12.1°C 86% Calm Calm 1.1 mph1.8 kmh 30.02 in1016.6 mb 0.00 in0.0 mm 0.00 in0.0 mm 0.00 in0.0 mm
05:38 AM 57.8°F14.3°C 53.7°F12.1°C 86% 1.2 mph NNE1.9 kmh NNE 1.6 mph2.6 kmh 30.02 in1016.6 mb 0.00 in0.0 mm 0.00 in0.0 mm 0.00 in0.0 mm
05:43 AM 58.0°F14.4°C 53.8°F12.1°C 86% 1.1 mph NNE1.8 kmh NNE 1.8 mph2.9 kmh 30.02 in1016.6 mb 0.00 in0.0 mm 0.00 in0.0 mm 0.00 in0.0 mm
05:48 AM 57.8°F14.3°C 53.7°F12.1°C 86% 1.5 mph NNE2.4 kmh NNE 2.9 mph4.7 kmh 30.03 in1016.9 mb 0.00 in0.0 mm 0.00 in0.0 mm 0.00 in0.0 mm
05:54 AM 58.0°F14.4°C 53.8°F12.1°C 86% 1.0 mph NNE1.6 kmh NNE 2.9 mph4.7 kmh 30.03 in1016.9 mb 0.00 in0.0 mm 0.00 in0.0 mm 0.00 in0.0 mm
05:59 AM 57.8°F14.3°C 53.3°F11.8°C 85% 0.8 mph NNE1.3 kmh NNE 2.5 mph4.0 kmh 30.03 in1016.9 mb 0.00 in0.0 mm 0.00 in0.0 mm 0.00 in0.0 mm
06:04 AM 57.8°F14.3°C 53.7°F12.1°C 86% 0.9 mph NNE1.4 kmh NNE 2.5 mph4.0 kmh 30.03 in1016.9 mb 0.00 in0.0 mm 0.00 in0.0 mm 0.00 in0.0 mm
06:09 AM 58.0°F14.4°C 53.8°F12.1°C 86% 0.6 mph NNE1.0 kmh NNE 2.2 mph3.5 kmh 30.03 in1016.9 mb 0.00 in0.0 mm 0.00 in0.0 mm 0.00 in0.0 mm
06:15 AM 57.8°F14.3°C 53.3°F11.8°C 85% 0.8 mph NNE1.3 kmh NNE 1.3 mph2.1 kmh 30.03 in1016.9 mb 0.00 in0.0 mm 0.00 in0.0 mm 0.00 in0.0 mm
06:22 AM 57.8°F14.3°C 53.3°F11.8°C 85% 0.3 mph NNE0.5 kmh NNE 1.6 mph2.6 kmh 30.04 in1017.3 mb 0.00 in0.0 mm 0.00 in0.0 mm 0.00 in0.0 mm
06:27 AM 57.8°F14.3°C 53.3°F11.8°C 85% 0.5 mph NNE0.8 kmh NNE 1.6 mph2.6 kmh 30.04 in1017.3 mb 0.00 in0.0 mm 0.00 in0.0 mm 0.00 in0.0 mm
06:32 AM 57.8°F14.3°C 53.3°F11.8°C 85% 0.6 mph NNE1.0 kmh NNE 1.8 mph2.9 kmh 30.04 in1017.3 mb 0.00 in0.0 mm 0.00 in0.0 mm 0.00 in0.0 mm
06:38 AM 57.8°F14.3°C 53.3°F11.8°C 85% Calm Calm 1.8 mph2.9 kmh 30.04 in1017.3 mb 0.00 in0.0 mm 0.00 in0.0 mm 0.00 in0.0 mm
06:44 AM 57.8°F14.3°C 53.3°F11.8°C 85% 0.2 mph NNE0.3 kmh NNE 1.1 mph1.8 kmh 30.05 in1017.6 mb 0.00 in0.0 mm 0.00 in0.0 mm 0.00 in0.0 mm
06:49 AM 57.8°F14.3°C 53.3°F11.8°C 85% 0.9 mph NNE1.4 kmh NNE 1.6 mph2.6 kmh 30.05 in1017.6 mb 0.00 in0.0 mm 0.00 in0.0 mm 0.00 in0.0 mm
06:54 AM 57.8°F14.3°C 53.3°F11.8°C 85% 0.7 mph NNE1.1 kmh NNE 1.6 mph2.6 kmh 30.05 in1017.6 mb 0.00 in0.0 mm 0.00 in0.0 mm 0.00 in0.0 mm
06:59 AM 57.8°F14.3°C 53.3°F11.8°C 85% 0.2 mph NNE0.3 kmh NNE 2.5 mph4.0 kmh 30.05 in1017.6 mb 0.00 in0.0 mm 0.00 in0.0 mm 0.00 in0.0 mm
07:04 AM 57.6°F14.2°C 53.5°F11.9°C 86% 0.6 mph NNE1.0 kmh NNE 2.5 mph4.0 kmh 30.05 in1017.6 mb 0.00 in0.0 mm 0.00 in0.0 mm 0.00 in0.0 mm
07:10 AM 57.6°F14.2°C 53.5°F11.9°C 86% 0.2 mph NNE0.3 kmh NNE 1.3 mph2.1 kmh 30.05 in1017.6 mb 0.00 in0.0 mm 0.00 in0.0 mm 0.00 in0.0 mm
07:15 AM 57.6°F14.2°C 53.5°F11.9°C 86% 0.3 mph NNE0.5 kmh NNE 1.6 mph2.6 kmh 30.05 in1017.6 mb 0.00 in0.0 mm 0.00 in0.0 mm 0.00 in0.0 mm
07:20 AM 57.6°F14.2°C 53.5°F11.9°C 86% 1.2 mph NNE1.9 kmh NNE 2.0 mph3.2 kmh 30.05 in1017.6 mb 0.00 in0.0 mm 0.00 in0.0 mm 0.00 in0.0 mm
07:25 AM 57.6°F14.2°C 53.5°F11.9°C 86% 0.1 mph NNE0.2 kmh NNE 2.0 mph3.2 kmh 30.05 in1017.6 mb 0.00 in0.0 mm 0.00 in0.0 mm 0.00 in0.0 mm
07:31 AM 57.4°F14.1°C 53.3°F11.8°C 86% 0.7 mph NNE1.1 kmh NNE 3.4 mph5.5 kmh 30.05 in1017.6 mb 0.00 in0.0 mm 0.00 in0.0 mm 0.00 in0.0 mm
07:35 AM 57.4°F14.1°C 53.3°F11.8°C 86% 0.3 mph NNE0.5 kmh NNE 3.4 mph5.5 kmh 30.05 in1017.6 mb 0.00 in0.0 mm 0.00 in0.0 mm 0.00 in0.0 mm
07:41 AM 57.6°F14.2°C 53.5°F11.9°C 86% 0.9 mph NNE1.4 kmh NNE 1.3 mph2.1 kmh 30.05 in1017.6 mb 0.00 in0.0 mm 0.00 in0.0 mm 0.00 in0.0 mm
07:46 AM 57.6°F14.2°C 53.5°F11.9°C 86% 1.0 mph NNE1.6 kmh NNE 2.5 mph4.0 kmh 30.05 in1017.6 mb 0.00 in0.0 mm 0.00 in0.0 mm 0.00 in0.0 mm
07:53 AM 57.8°F14.3°C 53.7°F12.1°C 86% Calm Calm 2.5 mph4.0 kmh 30.05 in1017.6 mb 0.00 in0.0 mm 0.00 in0.0 mm 0.00 in0.0 mm
07:58 AM 57.8°F14.3°C 53.7°F12.1°C 86% 1.2 mph NNE1.9 kmh NNE 2.2 mph3.5 kmh 30.05 in1017.6 mb 0.00 in0.0 mm 0.00 in0.0 mm 0.00 in0.0 mm
08:03 AM 57.8°F14.3°C 53.7°F12.1°C 86% 1.1 mph NNE1.8 kmh NNE 2.9 mph4.7 kmh 30.05 in1017.6 mb 0.00 in0.0 mm 0.00 in0.0 mm 0.00 in0.0 mm
08:08 AM 58.0°F14.4°C 53.8°F12.1°C 86% 0.3 mph NNE0.5 kmh NNE 2.9 mph4.7 kmh 30.05 in1017.6 mb 0.00 in0.0 mm 0.00 in0.0 mm 0.00 in0.0 mm
08:13 AM 58.0°F14.4°C 53.8°F12.1°C 86% 0.2 mph NNE0.3 kmh NNE 2.9 mph4.7 kmh 30.05 in1017.6 mb 0.00 in0.0 mm 0.00 in0.0 mm 0.00 in0.0 mm
08:18 AM 58.1°F14.5°C 54.0°F12.2°C 86% 0.3 mph NNE0.5 kmh NNE 3.4 mph5.5 kmh 30.05 in1017.6 mb 0.00 in0.0 mm 0.00 in0.0 mm 0.00 in0.0 mm
08:24 AM 58.3°F14.6°C 54.2°F12.3°C 86% 0.4 mph NNE0.6 kmh NNE 2.0 mph3.2 kmh 30.06 in1017.9 mb 0.00 in0.0 mm 0.00 in0.0 mm 0.00 in0.0 mm
08:30 AM 58.7°F14.8°C 54.2°F12.3°C 85% 0.1 mph NNE0.2 kmh NNE 1.1 mph1.8 kmh 30.06 in1017.9 mb 0.00 in0.0 mm 0.00 in0.0 mm 0.00 in0.0 mm
08:36 AM 59.0°F15.0°C 54.5°F12.5°C 85% Calm Calm 1.1 mph1.8 kmh 30.06 in1017.9 mb 0.00 in0.0 mm 0.00 in0.0 mm 0.00 in0.0 mm
08:41 AM 59.6°F15.3°C 55.1°F12.8°C 85% 0.9 mph NNE1.4 kmh NNE 1.1 mph1.8 kmh 30.06 in1017.9 mb 0.00 in0.0 mm 0.00 in0.0 mm 0.00 in0.0 mm
08:46 AM 59.8°F15.4°C 54.9°F12.7°C 84% Calm Calm 1.1 mph1.8 kmh 30.06 in1017.9 mb 0.00 in0.0 mm 0.00 in0.0 mm 0.00 in0.0 mm
08:51 AM 60.3°F15.7°C 55.4°F13.0°C 84% 1.3 mph NNE2.1 kmh NNE 1.6 mph2.6 kmh 30.06 in1017.9 mb 0.00 in0.0 mm 0.00 in0.0 mm 0.00 in0.0 mm
08:57 AM 60.8°F16.0°C 55.7°F13.2°C 83% 0.1 mph NNE0.2 kmh NNE 1.6 mph2.6 kmh 30.06 in1017.9 mb 0.00 in0.0 mm 0.00 in0.0 mm 0.00 in0.0 mm
09:02 AM 61.2°F16.2°C 55.7°F13.2°C 82% Calm Calm 1.6 mph2.6 kmh 30.06 in1017.9 mb 0.00 in0.0 mm 0.00 in0.0 mm 0.00 in0.0 mm
09:07 AM 61.7°F16.5°C 55.9°F13.3°C 81% 0.2 mph NNE0.3 kmh NNE 0.2 mph0.3 kmh 30.06 in1017.9 mb 0.00 in0.0 mm 0.00 in0.0 mm 0.00 in0.0 mm
09:12 AM 62.1°F16.7°C 55.9°F13.3°C 80% 0.2 mph NNE0.3 kmh NNE 0.9 mph1.4 kmh 30.06 in1017.9 mb 0.00 in0.0 mm 0.00 in0.0 mm 0.00 in0.0 mm
09:17 AM 62.5°F16.9°C 55.8°F13.2°C 79% Calm Calm 0.9 mph1.4 kmh 30.06 in1017.9 mb 0.00 in0.0 mm 0.00 in0.0 mm 0.00 in0.0 mm
09:23 AM 62.8°F17.1°C 55.8°F13.2°C 78% 0.7 mph NNE1.1 kmh NNE 1.1 mph1.8 kmh 30.06 in1017.9 mb 0.00 in0.0 mm 0.00 in0.0 mm 0.00 in0.0 mm
09:28 AM 63.0°F17.2°C 55.6°F13.1°C 77% Calm Calm 1.1 mph1.8 kmh 30.06 in1017.9 mb 0.00 in0.0 mm 0.00 in0.0 mm 0.00 in0.0 mm
09:33 AM 63.4°F17.4°C 55.6°F13.1°C 76% 0.6 mph NNE1.0 kmh NNE 1.6 mph2.6 kmh 30.06 in1017.9 mb 0.00 in0.0 mm 0.00 in0.0 mm 0.00 in0.0 mm
09:38 AM 63.9°F17.7°C 55.8°F13.2°C 75% 0.5 mph NNE0.8 kmh NNE 1.6 mph2.6 kmh 30.06 in1017.9 mb 0.00 in0.0 mm 0.00 in0.0 mm 0.00 in0.0 mm
09:43 AM 64.1°F17.8°C 55.6°F13.1°C 74% Calm Calm 1.6 mph2.6 kmh 30.06 in1017.9 mb 0.00 in0.0 mm 0.00 in0.0 mm 0.00 in0.0 mm
09:49 AM 64.4°F18.0°C 56.0°F13.3°C 74% Calm Calm 0.4 mph0.6 kmh 30.06 in1017.9 mb 0.00 in0.0 mm 0.00 in0.0 mm 0.00 in0.0 mm
09:54 AM 64.8°F18.2°C 56.0°F13.3°C 73% 0.2 mph NNE0.3 kmh NNE 0.4 mph0.6 kmh 30.06 in1017.9 mb 0.00 in0.0 mm 0.00 in0.0 mm 0.00 in0.0 mm
10:00 AM 65.5°F18.6°C 56.3°F13.5°C 72% 1.1 mph NNE1.8 kmh NNE 1.8 mph2.9 kmh 30.06 in1017.9 mb 0.00 in0.0 mm 0.00 in0.0 mm 0.00 in0.0 mm
10:05 AM 66.4°F19.1°C 55.9°F13.3°C 69% 0.3 mph NNE0.5 kmh NNE 2.0 mph3.2 kmh 30.05 in1017.6 mb 0.00 in0.0 mm 0.00 in0.0 mm 0.00 in0.0 mm
10:10 AM 66.6°F19.2°C 56.1°F13.4°C 69% 3.4 mph NNE5.5 kmh NNE 3.4 mph5.5 kmh 30.05 in1017.6 mb 0.00 in0.0 mm 0.00 in0.0 mm 0.00 in0.0 mm
10:15 AM 67.3°F19.6°C 56.0°F13.3°C 67% 0.9 mph NNE1.4 kmh NNE 3.4 mph5.5 kmh 30.06 in1017.9 mb 0.00 in0.0 mm 0.00 in0.0 mm 0.00 in0.0 mm
10:20 AM 67.9°F19.9°C 55.6°F13.1°C 65% 0.9 mph NNE1.4 kmh NNE 3.4 mph5.5 kmh 30.05 in1017.6 mb 0.00 in0.0 mm 0.00 in0.0 mm 0.00 in0.0 mm
10:25 AM 68.4°F20.2°C 54.9°F12.7°C 62% 2.1 mph NNE3.4 kmh NNE 4.0 mph6.4 kmh 30.05 in1017.6 mb 0.00 in0.0 mm 0.00 in0.0 mm 0.00 in0.0 mm
10:30 AM 68.8°F20.4°C 55.2°F12.9°C 62% 0.4 mph NNE0.6 kmh NNE 4.7 mph7.6 kmh 30.05 in1017.6 mb 0.00 in0.0 mm 0.00 in0.0 mm 0.00 in0.0 mm
10:35 AM 69.1°F20.6°C 56.0°F13.3°C 63% 2.1 mph NNE3.4 kmh NNE 4.7 mph7.6 kmh 30.05 in1017.6 mb 0.00 in0.0 mm 0.00 in0.0 mm 0.00 in0.0 mm
10:41 AM 69.8°F21.0°C 56.7°F13.7°C 63% 1.3 mph NNE2.1 kmh NNE 3.1 mph5.0 kmh 30.05 in1017.6 mb 0.00 in0.0 mm 0.00 in0.0 mm 0.00 in0.0 mm
10:46 AM 69.8°F21.0°C 56.7°F13.7°C 63% 0.7 mph NNE1.1 kmh NNE 3.1 mph5.0 kmh 30.04 in1017.3 mb 0.00 in0.0 mm 0.00 in0.0 mm 0.00 in0.0 mm
10:51 AM 70.2°F21.2°C 56.6°F13.7°C 62% 3.4 mph NNE5.5 kmh NNE 5.1 mph8.2 kmh 30.04 in1017.3 mb 0.00 in0.0 mm 0.00 in0.0 mm 0.00 in0.0 mm
10:57 AM 70.4°F21.3°C 57.2°F14.0°C 63% 3.1 mph NNE5.0 kmh NNE 5.1 mph8.2 kmh 30.04 in1017.3 mb 0.00 in0.0 mm 0.00 in0.0 mm 0.00 in0.0 mm
11:02 AM 70.6°F21.4°C 57.3°F14.1°C 63% 2.7 mph NNE4.3 kmh NNE 3.8 mph6.1 kmh 30.04 in1017.3 mb 0.00 in0.0 mm 0.00 in0.0 mm 0.00 in0.0 mm
11:08 AM 70.7°F21.5°C 58.0°F14.4°C 64% 4.0 mph NNE6.4 kmh NNE 6.0 mph9.7 kmh 30.04 in1017.3 mb 0.00 in0.0 mm 0.00 in0.0 mm 0.00 in0.0 mm
11:13 AM 70.9°F21.6°C 58.2°F14.6°C 64% 4.3 mph NNE6.9 kmh NNE 6.0 mph9.7 kmh 30.04 in1017.3 mb 0.00 in0.0 mm 0.00 in0.0 mm 0.00 in0.0 mm
11:18 AM 70.7°F21.5°C 58.0°F14.4°C 64% 4.0 mph NNE6.4 kmh NNE 6.0 mph9.7 kmh 30.04 in1017.3 mb 0.00 in0.0 mm 0.00 in0.0 mm 0.00 in0.0 mm
11:23 AM 70.7°F21.5°C 58.0°F14.4°C 64% 3.2 mph NNE5.1 kmh NNE 5.6 mph9.0 kmh 30.04 in1017.3 mb 0.00 in0.0 mm 0.00 in0.0 mm 0.00 in0.0 mm
11:28 AM 70.6°F21.4°C 57.8°F14.3°C 64% 4.6 mph NNE7.4 kmh NNE 5.4 mph8.7 kmh 30.03 in1016.9 mb 0.00 in0.0 mm 0.00 in0.0 mm 0.00 in0.0 mm
11:33 AM 70.2°F21.2°C 57.4°F14.1°C 64% 4.7 mph NNE7.6 kmh NNE 5.4 mph8.7 kmh 30.03 in1016.9 mb 0.00 in0.0 mm 0.00 in0.0 mm 0.00 in0.0 mm
11:38 AM 70.0°F21.1°C 57.2°F14.0°C 64% 4.8 mph NNE7.7 kmh NNE 5.6 mph9.0 kmh 30.03 in1016.9 mb 0.00 in0.0 mm 0.00 in0.0 mm 0.00 in0.0 mm
11:44 AM 69.8°F21.0°C 57.1°F13.9°C 64% 3.3 mph NNE5.3 kmh NNE 5.6 mph9.0 kmh 30.03 in1016.9 mb 0.00 in0.0 mm 0.00 in0.0 mm 0.00 in0.0 mm
11:49 AM 70.0°F21.1°C 57.2°F14.0°C 64% 3.5 mph NNE5.6 kmh NNE 5.4 mph8.7 kmh 30.03 in1016.9 mb 0.00 in0.0 mm 0.00 in0.0 mm 0.00 in0.0 mm
11:55 AM 69.8°F21.0°C 57.1°F13.9°C 64% 1.8 mph NNE2.9 kmh NNE 5.4 mph8.7 kmh 30.03 in1016.9 mb 0.00 in0.0 mm 0.00 in0.0 mm 0.00 in0.0 mm
12:00 PM 69.8°F21.0°C 57.1°F13.9°C 64% 2.5 mph NNE4.0 kmh NNE 4.0 mph6.4 kmh 30.02 in1016.6 mb 0.00 in0.0 mm 0.00 in0.0 mm 0.00 in0.0 mm
12:05 PM 70.0°F21.1°C 56.9°F13.8°C 63% 3.6 mph NNE5.8 kmh NNE 4.3 mph6.9 kmh 30.02 in1016.6 mb 0.00 in0.0 mm 0.00 in0.0 mm 0.00 in0.0 mm
12:10 PM 70.0°F21.1°C 56.9°F13.8°C 63% 2.2 mph NNE3.5 kmh NNE 4.3 mph6.9 kmh 30.02 in1016.6 mb 0.00 in0.0 mm 0.00 in0.0 mm 0.00 in0.0 mm
12:15 PM 70.2°F21.2°C 56.6°F13.7°C 62% 3.6 mph NNE5.8 kmh NNE 4.0 mph6.4 kmh 30.02 in1016.6 mb 0.00 in0.0 mm 0.00 in0.0 mm 0.00 in0.0 mm
12:20 PM 70.7°F21.5°C 56.7°F13.7°C 61% 2.6 mph NNE4.2 kmh NNE 4.0 mph6.4 kmh 30.02 in1016.6 mb 0.00 in0.0 mm 0.00 in0.0 mm 0.00 in0.0 mm
12:25 PM 71.1°F21.7°C 57.0°F13.9°C 61% 1.5 mph NNE2.4 kmh NNE 3.6 mph5.8 kmh 30.01 in1016.3 mb 0.00 in0.0 mm 0.00 in0.0 mm 0.00 in0.0 mm
12:30 PM 71.5°F21.9°C 56.9°F13.8°C 60% 1.3 mph NNE2.1 kmh NNE 4.0 mph6.4 kmh 30.01 in1016.3 mb 0.00 in0.0 mm 0.00 in0.0 mm 0.00 in0.0 mm
12:35 PM 71.8°F22.1°C 56.3°F13.5°C 58% 2.8 mph NNE4.5 kmh NNE 4.0 mph6.4 kmh 30.01 in1016.3 mb 0.00 in0.0 mm 0.00 in0.0 mm 0.00 in0.0 mm
12:40 PM 72.0°F22.2°C 55.9°F13.3°C 57% 2.9 mph NNE4.7 kmh NNE 4.7 mph7.6 kmh 30.01 in1016.3 mb 0.00 in0.0 mm 0.00 in0.0 mm 0.00 in0.0 mm
12:46 PM 72.4°F22.4°C 56.7°F13.7°C 58% 2.4 mph NNE3.9 kmh NNE 4.9 mph7.9 kmh 30.01 in1016.3 mb 0.00 in0.0 mm 0.00 in0.0 mm 0.00 in0.0 mm
12:51 PM 72.4°F22.4°C 56.7°F13.7°C 58% 5.6 mph NNE9.0 kmh NNE 5.6 mph9.0 kmh 30.01 in1016.3 mb 0.00 in0.0 mm 0.00 in0.0 mm 0.00 in0.0 mm
12:56 PM 72.2°F22.3°C 57.1°F13.9°C 59% 4.8 mph NNE7.7 kmh NNE 6.0 mph9.7 kmh 30.01 in1016.3 mb 0.00 in0.0 mm 0.00 in0.0 mm 0.00 in0.0 mm
01:02 PM 72.0°F22.2°C 56.9°F13.8°C 59% 5.1 mph NNE8.2 kmh NNE 6.0 mph9.7 kmh 30.01 in1016.3 mb 0.00 in0.0 mm 0.00 in0.0 mm 0.00 in0.0 mm
01:07 PM 71.8°F22.1°C 56.7°F13.7°C 59% 5.1 mph NNE8.2 kmh NNE 6.3 mph10.1 kmh 30.01 in1016.3 mb 0.00 in0.0 mm 0.00 in0.0 mm 0.00 in0.0 mm
01:12 PM 71.8°F22.1°C 57.3°F14.1°C 60% 2.9 mph NNE4.7 kmh NNE 6.3 mph10.1 kmh 30.01 in1016.3 mb 0.00 in0.0 mm 0.00 in0.0 mm 0.00 in0.0 mm
01:18 PM 71.6°F22.0°C 57.1°F13.9°C 60% 2.7 mph NNE4.3 kmh NNE 3.8 mph6.1 kmh 30.01 in1016.3 mb 0.00 in0.0 mm 0.00 in0.0 mm 0.00 in0.0 mm
01:23 PM 71.6°F22.0°C 57.1°F13.9°C 60% 2.8 mph NNE4.5 kmh NNE 3.8 mph6.1 kmh 30.00 in1015.9 mb 0.00 in0.0 mm 0.00 in0.0 mm 0.00 in0.0 mm
01:29 PM 71.8°F22.1°C 56.7°F13.7°C 59% 1.6 mph NNE2.6 kmh NNE 4.0 mph6.4 kmh 30.00 in1015.9 mb 0.00 in0.0 mm 0.00 in0.0 mm 0.00 in0.0 mm
01:36 PM 71.6°F22.0°C 57.1°F13.9°C 60% 0.9 mph NNE1.4 kmh NNE 5.6 mph9.0 kmh 30.00 in1015.9 mb 0.00 in0.0 mm 0.00 in0.0 mm 0.00 in0.0 mm
01:41 PM 71.8°F22.1°C 57.7°F14.3°C 61% 2.7 mph NNE4.3 kmh NNE 5.6 mph9.0 kmh 30.00 in1015.9 mb 0.00 in0.0 mm 0.00 in0.0 mm 0.00 in0.0 mm
01:46 PM 72.0°F22.2°C 57.8°F14.3°C 61% 2.2 mph NNE3.5 kmh NNE 4.9 mph7.9 kmh 30.00 in1015.9 mb 0.00 in0.0 mm 0.00 in0.0 mm 0.00 in0.0 mm
01:51 PM 72.0°F22.2°C 57.8°F14.3°C 61% 5.1 mph NNE8.2 kmh NNE 5.1 mph8.2 kmh 30.00 in1015.9 mb 0.00 in0.0 mm 0.00 in0.0 mm 0.00 in0.0 mm
01:56 PM 72.2°F22.3°C 57.5°F14.2°C 60% 3.5 mph NNE5.6 kmh NNE 5.6 mph9.0 kmh 30.00 in1015.9 mb 0.00 in0.0 mm 0.00 in0.0 mm 0.00 in0.0 mm
02:01 PM 72.2°F22.3°C 57.5°F14.2°C 60% 2.4 mph NNE3.9 kmh NNE 5.6 mph9.0 kmh 30.00 in1015.9 mb 0.00 in0.0 mm 0.00 in0.0 mm 0.00 in0.0 mm
02:06 PM 72.4°F22.4°C 57.7°F14.3°C 60% 1.4 mph NNE2.3 kmh NNE 3.8 mph6.1 kmh 30.00 in1015.9 mb 0.00 in0.0 mm 0.00 in0.0 mm 0.00 in0.0 mm
02:12 PM 72.5°F22.5°C 57.3°F14.1°C 59% 4.0 mph NNE6.4 kmh NNE 5.4 mph8.7 kmh 30.00 in1015.9 mb 0.00 in0.0 mm 0.00 in0.0 mm 0.00 in0.0 mm
02:17 PM 72.7°F22.6°C 57.5°F14.2°C 59% 4.4 mph NNE7.1 kmh NNE 5.4 mph8.7 kmh 29.99 in1015.6 mb 0.00 in0.0 mm 0.00 in0.0 mm 0.00 in0.0 mm
02:22 PM 72.7°F22.6°C 58.1°F14.5°C 60% 4.3 mph NNE6.9 kmh NNE 5.8 mph9.3 kmh 30.00 in1015.9 mb 0.00 in0.0 mm 0.00 in0.0 mm 0.00 in0.0 mm
02:28 PM 72.7°F22.6°C 58.1°F14.5°C 60% 3.2 mph NNE5.1 kmh NNE 5.8 mph9.3 kmh 30.00 in1015.9 mb 0.00 in0.0 mm 0.00 in0.0 mm 0.00 in0.0 mm
02:36 PM 72.7°F22.6°C 58.1°F14.5°C 60% 4.0 mph NNE6.4 kmh NNE 4.5 mph7.2 kmh 30.00 in1015.9 mb 0.00 in0.0 mm 0.00 in0.0 mm 0.00 in0.0 mm
02:40 PM 72.7°F22.6°C 58.1°F14.5°C 60% 2.6 mph NNE4.2 kmh NNE 4.5 mph7.2 kmh 30.00 in1015.9 mb 0.00 in0.0 mm 0.00 in0.0 mm 0.00 in0.0 mm
02:45 PM 72.9°F22.7°C 58.2°F14.6°C 60% 3.8 mph NNE6.1 kmh NNE 5.6 mph9.0 kmh 30.00 in1015.9 mb 0.00 in0.0 mm 0.00 in0.0 mm 0.00 in0.0 mm
02:51 PM 72.7°F22.6°C 58.1°F14.5°C 60% 3.7 mph NNE6.0 kmh NNE 6.0 mph9.7 kmh 30.00 in1015.9 mb 0.00 in0.0 mm 0.00 in0.0 mm 0.00 in0.0 mm
02:56 PM 72.9°F22.7°C 58.2°F14.6°C 60% 2.2 mph NNE3.5 kmh NNE 6.0 mph9.7 kmh 30.00 in1015.9 mb 0.00 in0.0 mm 0.00 in0.0 mm 0.00 in0.0 mm
03:02 PM 72.9°F22.7°C 58.2°F14.6°C 60% 3.6 mph NNE5.8 kmh NNE 6.5 mph10.5 kmh 30.00 in1015.9 mb 0.00 in0.0 mm 0.00 in0.0 mm 0.00 in0.0 mm
03:08 PM 73.1°F22.8°C 58.8°F14.9°C 61% 4.5 mph NNE7.2 kmh NNE 6.7 mph10.8 kmh 29.99 in1015.6 mb 0.00 in0.0 mm 0.00 in0.0 mm 0.00 in0.0 mm
03:13 PM 72.9°F22.7°C 58.7°F14.8°C 61% 4.0 mph NNE6.4 kmh NNE 6.7 mph10.8 kmh 29.99 in1015.6 mb 0.00 in0.0 mm 0.00 in0.0 mm 0.00 in0.0 mm
03:18 PM 72.7°F22.6°C 59.0°F15.0°C 62% 4.7 mph NNE7.6 kmh NNE 5.4 mph8.7 kmh 29.99 in1015.6 mb 0.00 in0.0 mm 0.00 in0.0 mm 0.00 in0.0 mm
03:24 PM 72.2°F22.3°C 58.4°F14.7°C 62% 6.8 mph NNE10.9 kmh NNE 8.1 mph13.0 kmh 29.99 in1015.6 mb 0.00 in0.0 mm 0.00 in0.0 mm 0.00 in0.0 mm
03:30 PM 71.6°F22.0°C 58.3°F14.6°C 63% 5.6 mph NNE9.0 kmh NNE 8.1 mph13.0 kmh 29.99 in1015.6 mb 0.00 in0.0 mm 0.00 in0.0 mm 0.00 in0.0 mm
03:35 PM 70.9°F21.6°C 58.2°F14.6°C 64% 3.4 mph NNE5.5 kmh NNE 6.7 mph10.8 kmh 30.00 in1015.9 mb 0.00 in0.0 mm 0.00 in0.0 mm 0.00 in0.0 mm
03:41 PM 70.9°F21.6°C 58.2°F14.6°C 64% 2.5 mph NNE4.0 kmh NNE 5.6 mph9.0 kmh 30.00 in1015.9 mb 0.00 in0.0 mm 0.00 in0.0 mm 0.00 in0.0 mm
03:46 PM 70.6°F21.4°C 58.2°F14.6°C 65% 4.8 mph NNE7.7 kmh NNE 6.3 mph10.1 kmh 30.00 in1015.9 mb 0.00 in0.0 mm 0.00 in0.0 mm 0.00 in0.0 mm
03:52 PM 70.0°F21.1°C 57.7°F14.3°C 65% 5.8 mph NNE9.3 kmh NNE 6.9 mph11.1 kmh 30.00 in1015.9 mb 0.00 in0.0 mm 0.00 in0.0 mm 0.00 in0.0 mm
03:57 PM 69.5°F20.8°C 57.6°F14.2°C 66% 8.4 mph NNE13.5 kmh NNE 9.2 mph14.8 kmh 30.01 in1016.3 mb 0.00 in0.0 mm 0.00 in0.0 mm 0.00 in0.0 mm
04:03 PM 69.1°F20.6°C 57.7°F14.3°C 67% 3.9 mph NNE6.3 kmh NNE 9.2 mph14.8 kmh 30.01 in1016.3 mb 0.00 in0.0 mm 0.00 in0.0 mm 0.00 in0.0 mm
04:08 PM 68.8°F20.4°C 57.3°F14.1°C 67% 4.2 mph NNE6.8 kmh NNE 7.4 mph11.9 kmh 30.01 in1016.3 mb 0.00 in0.0 mm 0.00 in0.0 mm 0.00 in0.0 mm
04:13 PM 68.4°F20.2°C 57.0°F13.9°C 67% 5.5 mph NNE8.9 kmh NNE 6.9 mph11.1 kmh 30.01 in1016.3 mb 0.00 in0.0 mm 0.00 in0.0 mm 0.00 in0.0 mm
04:18 PM 67.7°F19.8°C 56.4°F13.6°C 67% 4.2 mph NNE6.8 kmh NNE 7.6 mph12.2 kmh 30.01 in1016.3 mb 0.00 in0.0 mm 0.00 in0.0 mm 0.00 in0.0 mm
04:23 PM 67.3°F19.6°C 56.4°F13.6°C 68% 7.2 mph NNE11.6 kmh NNE 8.5 mph13.7 kmh 30.01 in1016.3 mb 0.00 in0.0 mm 0.00 in0.0 mm 0.00 in0.0 mm
04:29 PM 66.8°F19.3°C 56.3°F13.5°C 69% 4.8 mph NNE7.7 kmh NNE 8.5 mph13.7 kmh 30.02 in1016.6 mb 0.00 in0.0 mm 0.00 in0.0 mm 0.00 in0.0 mm
04:34 PM 66.4°F19.1°C 56.3°F13.5°C 70% 4.9 mph NNE7.9 kmh NNE 7.4 mph11.9 kmh 30.02 in1016.6 mb 0.00 in0.0 mm 0.00 in0.0 mm 0.00 in0.0 mm
04:39 PM 66.2°F19.0°C 56.5°F13.6°C 71% 4.4 mph NNE7.1 kmh NNE 8.3 mph13.4 kmh 30.03 in1016.9 mb 0.00 in0.0 mm 0.00 in0.0 mm 0.00 in0.0 mm
04:44 PM 65.5°F18.6°C 56.3°F13.5°C 72% 4.1 mph NNE6.6 kmh NNE 8.3 mph13.4 kmh 30.03 in1016.9 mb 0.00 in0.0 mm 0.00 in0.0 mm 0.00 in0.0 mm
04:49 PM 65.2°F18.4°C 55.9°F13.3°C 72% 3.7 mph NNE6.0 kmh NNE 7.4 mph11.9 kmh 30.03 in1016.9 mb 0.00 in0.0 mm 0.00 in0.0 mm 0.00 in0.0 mm
04:54 PM 65.0°F18.3°C 56.5°F13.6°C 74% 4.6 mph NNE7.4 kmh NNE 6.3 mph10.1 kmh 30.03 in1016.9 mb 0.00 in0.0 mm 0.00 in0.0 mm 0.00 in0.0 mm
04:59 PM 64.6°F18.1°C 56.2°F13.4°C 74% 4.4 mph NNE7.1 kmh NNE 6.0 mph9.7 kmh 30.03 in1016.9 mb 0.00 in0.0 mm 0.00 in0.0 mm 0.00 in0.0 mm
05:05 PM 64.3°F17.9°C 55.8°F13.2°C 74% 3.4 mph NNE5.5 kmh NNE 7.4 mph11.9 kmh 30.04 in1017.3 mb 0.00 in0.0 mm 0.00 in0.0 mm 0.00 in0.0 mm
05:11 PM 64.1°F17.8°C 55.6°F13.1°C 74% 4.8 mph NNE7.7 kmh NNE 7.4 mph11.9 kmh 30.04 in1017.3 mb 0.00 in0.0 mm 0.00 in0.0 mm 0.00 in0.0 mm
05:16 PM 63.7°F17.6°C 55.6°F13.1°C 75% 2.7 mph NNE4.3 kmh NNE 7.4 mph11.9 kmh 30.04 in1017.3 mb 0.00 in0.0 mm 0.00 in0.0 mm 0.00 in0.0 mm
05:21 PM 63.5°F17.5°C 55.4°F13.0°C 75% 0.6 mph NNE1.0 kmh NNE 4.7 mph7.6 kmh 30.04 in1017.3 mb 0.00 in0.0 mm 0.00 in0.0 mm 0.00 in0.0 mm
05:26 PM 63.4°F17.4°C 55.3°F12.9°C 75% 3.3 mph NNE5.3 kmh NNE 6.0 mph9.7 kmh 30.04 in1017.3 mb 0.00 in0.0 mm 0.00 in0.0 mm 0.00 in0.0 mm
05:31 PM 63.4°F17.4°C 55.3°F12.9°C 75% 2.9 mph NNE4.7 kmh NNE 6.0 mph9.7 kmh 30.04 in1017.3 mb 0.00 in0.0 mm 0.00 in0.0 mm 0.00 in0.0 mm
05:36 PM 63.2°F17.3°C 55.1°F12.8°C 75% 2.1 mph NNE3.4 kmh NNE 4.7 mph7.6 kmh 30.04 in1017.3 mb 0.00 in0.0 mm 0.00 in0.0 mm 0.00 in0.0 mm
05:41 PM 63.0°F17.2°C 54.9°F12.7°C 75% 3.1 mph NNE5.0 kmh NNE 4.0 mph6.4 kmh 30.04 in1017.3 mb 0.00 in0.0 mm 0.00 in0.0 mm 0.00 in0.0 mm
05:46 PM 63.0°F17.2°C 55.3°F12.9°C 76% 0.6 mph NNE1.0 kmh NNE 4.0 mph6.4 kmh 30.04 in1017.3 mb 0.00 in0.0 mm 0.00 in0.0 mm 0.00 in0.0 mm
05:53 PM 63.0°F17.2°C 55.3°F12.9°C 76% 1.1 mph NNE1.8 kmh NNE 2.7 mph4.3 kmh 30.04 in1017.3 mb 0.00 in0.0 mm 0.00 in0.0 mm 0.00 in0.0 mm
05:58 PM 62.8°F17.1°C 55.1°F12.8°C 76% 0.5 mph NNE0.8 kmh NNE 2.7 mph4.3 kmh 30.04 in1017.3 mb 0.00 in0.0 mm 0.00 in0.0 mm 0.00 in0.0 mm
06:04 PM 62.8°F17.1°C 55.1°F12.8°C 76% 1.9 mph NNE3.1 kmh NNE 2.5 mph4.0 kmh 30.04 in1017.3 mb 0.00 in0.0 mm 0.00 in0.0 mm 0.00 in0.0 mm
06:10 PM 62.6°F17.0°C 54.5°F12.5°C 75% 1.5 mph NNE2.4 kmh NNE 2.9 mph4.7 kmh 30.04 in1017.3 mb 0.00 in0.0 mm 0.00 in0.0 mm 0.00 in0.0 mm
06:15 PM 62.6°F17.0°C 54.5°F12.5°C 75% 0.5 mph NNE0.8 kmh NNE 2.5 mph4.0 kmh 30.04 in1017.3 mb 0.00 in0.0 mm 0.00 in0.0 mm 0.00 in0.0 mm
06:20 PM 62.5°F16.9°C 54.4°F12.4°C 75% 0.7 mph NNE1.1 kmh NNE 3.4 mph5.5 kmh 30.04 in1017.3 mb 0.00 in0.0 mm 0.00 in0.0 mm 0.00 in0.0 mm
06:27 PM 62.3°F16.8°C 54.2°F12.3°C 75% 0.7 mph NNE1.1 kmh NNE 3.4 mph5.5 kmh 30.04 in1017.3 mb 0.00 in0.0 mm 0.00 in0.0 mm 0.00 in0.0 mm
06:32 PM 62.3°F16.8°C 54.2°F12.3°C 75% 0.5 mph NNE0.8 kmh NNE 1.8 mph2.9 kmh 30.04 in1017.3 mb 0.00 in0.0 mm 0.00 in0.0 mm 0.00 in0.0 mm
06:38 PM 62.1°F16.7°C 54.1°F12.3°C 75% 0.3 mph NNE0.5 kmh NNE 1.8 mph2.9 kmh 30.05 in1017.6 mb 0.00 in0.0 mm 0.00 in0.0 mm 0.00 in0.0 mm
06:43 PM 62.1°F16.7°C 54.1°F12.3°C 75% 1.1 mph NNE1.8 kmh NNE 1.8 mph2.9 kmh 30.05 in1017.6 mb 0.00 in0.0 mm 0.00 in0.0 mm 0.00 in0.0 mm
06:48 PM 61.9°F16.6°C 54.3°F12.4°C 76% 1.3 mph NNE2.1 kmh NNE 2.0 mph3.2 kmh 30.05 in1017.6 mb 0.00 in0.0 mm 0.00 in0.0 mm 0.00 in0.0 mm
06:54 PM 61.9°F16.6°C 54.3°F12.4°C 76% 1.5 mph NNE2.4 kmh NNE 2.2 mph3.5 kmh 30.06 in1017.9 mb 0.00 in0.0 mm 0.00 in0.0 mm 0.00 in0.0 mm
07:00 PM 61.7°F16.5°C 54.1°F12.3°C 76% 0.5 mph NNE0.8 kmh NNE 2.2 mph3.5 kmh 30.05 in1017.6 mb 0.00 in0.0 mm 0.00 in0.0 mm 0.00 in0.0 mm
07:05 PM 61.7°F16.5°C 54.1°F12.3°C 76% 1.7 mph NNE2.7 kmh NNE 2.9 mph4.7 kmh 30.05 in1017.6 mb 0.00 in0.0 mm 0.00 in0.0 mm 0.00 in0.0 mm
07:10 PM 61.6°F16.4°C 53.9°F12.2°C 76% 0.4 mph NNE0.6 kmh NNE 2.9 mph4.7 kmh 30.05 in1017.6 mb 0.00 in0.0 mm 0.00 in0.0 mm 0.00 in0.0 mm
07:16 PM 61.6°F16.4°C 53.9°F12.2°C 76% 0.3 mph NNE0.5 kmh NNE 1.1 mph1.8 kmh 30.05 in1017.6 mb 0.00 in0.0 mm 0.00 in0.0 mm 0.00 in0.0 mm
07:21 PM 61.4°F16.3°C 53.7°F12.1°C 76% 0.6 mph NNE1.0 kmh NNE 1.8 mph2.9 kmh 30.06 in1017.9 mb 0.00 in0.0 mm 0.00 in0.0 mm 0.00 in0.0 mm
07:27 PM 61.4°F16.3°C 54.1°F12.3°C 77% 0.7 mph NNE1.1 kmh NNE 1.8 mph2.9 kmh 30.06 in1017.9 mb 0.00 in0.0 mm 0.00 in0.0 mm 0.00 in0.0 mm
07:33 PM 61.2°F16.2°C 54.0°F12.2°C 77% 0.2 mph NNE0.3 kmh NNE 1.1 mph1.8 kmh 30.06 in1017.9 mb 0.00 in0.0 mm 0.00 in0.0 mm 0.00 in0.0 mm
07:39 PM 61.2°F16.2°C 54.0°F12.2°C 77% Calm Calm 1.1 mph1.8 kmh 30.06 in1017.9 mb 0.00 in0.0 mm 0.00 in0.0 mm 0.00 in0.0 mm
07:46 PM 61.0°F16.1°C 53.8°F12.1°C 77% 0.4 mph NNE0.6 kmh NNE 0.9 mph1.4 kmh 30.06 in1017.9 mb 0.00 in0.0 mm 0.00 in0.0 mm 0.00 in0.0 mm
07:51 PM 60.8°F16.0°C 53.6°F12.0°C 77% 0.4 mph NNE0.6 kmh NNE 0.7 mph1.1 kmh 30.06 in1017.9 mb 0.00 in0.0 mm 0.00 in0.0 mm 0.00 in0.0 mm
07:56 PM 60.8°F16.0°C 53.6°F12.0°C 77% 0.3 mph NNE0.5 kmh NNE 0.9 mph1.4 kmh 30.06 in1017.9 mb 0.00 in0.0 mm 0.00 in0.0 mm 0.00 in0.0 mm
08:01 PM 60.8°F16.0°C 53.6°F12.0°C 77% 0.1 mph NNE0.2 kmh NNE 0.9 mph1.4 kmh 30.06 in1017.9 mb 0.00 in0.0 mm 0.00 in0.0 mm 0.00 in0.0 mm
08:06 PM 60.7°F15.9°C 53.8°F12.1°C 78% 0.2 mph NNE0.3 kmh NNE 0.7 mph1.1 kmh 30.06 in1017.9 mb 0.00 in0.0 mm 0.00 in0.0 mm 0.00 in0.0 mm
08:11 PM 60.7°F15.9°C 53.8°F12.1°C 78% 0.1 mph NNE0.2 kmh NNE 1.1 mph1.8 kmh 30.06 in1017.9 mb 0.00 in0.0 mm 0.00 in0.0 mm 0.00 in0.0 mm
08:16 PM 60.5°F15.8°C 53.6°F12.0°C 78% 0.2 mph NNE0.3 kmh NNE 1.1 mph1.8 kmh 30.06 in1017.9 mb 0.00 in0.0 mm 0.00 in0.0 mm 0.00 in0.0 mm
08:22 PM 60.5°F15.8°C 53.6°F12.0°C 78% 0.2 mph NNE0.3 kmh NNE 0.7 mph1.1 kmh 30.06 in1017.9 mb 0.00 in0.0 mm 0.00 in0.0 mm 0.00 in0.0 mm
08:28 PM 60.3°F15.7°C 53.5°F11.9°C 78% Calm Calm 0.7 mph1.1 kmh 30.06 in1017.9 mb 0.00 in0.0 mm 0.00 in0.0 mm 0.00 in0.0 mm
08:33 PM 60.1°F15.6°C 53.3°F11.8°C 78% Calm Calm 0.4 mph0.6 kmh 30.06 in1017.9 mb 0.00 in0.0 mm 0.00 in0.0 mm 0.00 in0.0 mm
08:38 PM 60.1°F15.6°C 53.3°F11.8°C 78% Calm Calm -- 30.06 in1017.9 mb 0.00 in0.0 mm 0.00 in0.0 mm 0.00 in0.0 mm
08:44 PM 60.1°F15.6°C 53.6°F12.0°C 79% Calm Calm -- 30.06 in1017.9 mb 0.00 in0.0 mm 0.00 in0.0 mm 0.00 in0.0 mm
08:50 PM 59.9°F15.5°C 53.5°F11.9°C 79% Calm Calm -- 30.06 in1017.9 mb 0.00 in0.0 mm 0.00 in0.0 mm 0.00 in0.0 mm
08:55 PM 59.9°F15.5°C 53.5°F11.9°C 79% Calm Calm -- 30.06 in1017.9 mb 0.00 in0.0 mm 0.00 in0.0 mm 0.00 in0.0 mm
09:00 PM 59.8°F15.4°C 53.3°F11.8°C 79% 0.1 mph NNE0.2 kmh NNE 0.2 mph0.3 kmh 30.06 in1017.9 mb 0.00 in0.0 mm 0.00 in0.0 mm 0.00 in0.0 mm
09:05 PM 59.6°F15.3°C 53.1°F11.7°C 79% 0.4 mph NNE0.6 kmh NNE 0.7 mph1.1 kmh 30.06 in1017.9 mb 0.00 in0.0 mm 0.00 in0.0 mm 0.00 in0.0 mm
09:10 PM 59.6°F15.3°C 53.1°F11.7°C 79% 0.3 mph NNE0.5 kmh NNE 1.1 mph1.8 kmh 30.07 in1018.3 mb 0.00 in0.0 mm 0.00 in0.0 mm 0.00 in0.0 mm
09:16 PM 59.4°F15.2°C 52.9°F11.6°C 79% 0.1 mph NNE0.2 kmh NNE 1.1 mph1.8 kmh 30.07 in1018.3 mb 0.00 in0.0 mm 0.00 in0.0 mm 0.00 in0.0 mm
09:22 PM 59.4°F15.2°C 52.9°F11.6°C 79% 0.1 mph NNE0.2 kmh NNE 1.1 mph1.8 kmh 30.06 in1017.9 mb 0.00 in0.0 mm 0.00 in0.0 mm 0.00 in0.0 mm
09:27 PM 59.4°F15.2°C 52.9°F11.6°C 79% 0.1 mph NNE0.2 kmh NNE 0.4 mph0.6 kmh 30.07 in1018.3 mb 0.00 in0.0 mm 0.00 in0.0 mm 0.00 in0.0 mm
09:32 PM 59.2°F15.1°C 52.7°F11.5°C 79% 0.7 mph NNE1.1 kmh NNE 1.6 mph2.6 kmh 30.07 in1018.3 mb 0.00 in0.0 mm 0.00 in0.0 mm 0.00 in0.0 mm
09:38 PM 59.0°F15.0°C 52.6°F11.4°C 79% 0.3 mph NNE0.5 kmh NNE 1.6 mph2.6 kmh 30.06 in1017.9 mb 0.00 in0.0 mm 0.00 in0.0 mm 0.00 in0.0 mm
09:45 PM 59.0°F15.0°C 52.9°F11.6°C 80% Calm Calm 1.1 mph1.8 kmh 30.07 in1018.3 mb 0.00 in0.0 mm 0.00 in0.0 mm 0.00 in0.0 mm
09:51 PM 59.0°F15.0°C 52.9°F11.6°C 80% 1.2 mph NNE1.9 kmh NNE 2.0 mph3.2 kmh 30.06 in1017.9 mb 0.00 in0.0 mm 0.00 in0.0 mm 0.00 in0.0 mm
09:56 PM 58.9°F14.9°C 52.7°F11.5°C 80% 0.7 mph NNE1.1 kmh NNE 2.0 mph3.2 kmh 30.07 in1018.3 mb 0.00 in0.0 mm 0.00 in0.0 mm 0.00 in0.0 mm
10:02 PM 58.9°F14.9°C 52.7°F11.5°C 80% 0.5 mph NNE0.8 kmh NNE 1.3 mph2.1 kmh 30.06 in1017.9 mb 0.00 in0.0 mm 0.00 in0.0 mm 0.00 in0.0 mm
10:08 PM 58.7°F14.8°C 52.6°F11.4°C 80% 0.2 mph NNE0.3 kmh NNE 1.3 mph2.1 kmh 30.06 in1017.9 mb 0.00 in0.0 mm 0.00 in0.0 mm 0.00 in0.0 mm
10:13 PM 58.7°F14.8°C 52.6°F11.4°C 80% Calm Calm 1.1 mph1.8 kmh 30.06 in1017.9 mb 0.00 in0.0 mm 0.00 in0.0 mm 0.00 in0.0 mm
10:19 PM 58.7°F14.8°C 52.6°F11.4°C 80% Calm Calm 1.1 mph1.8 kmh 30.06 in1017.9 mb 0.00 in0.0 mm 0.00 in0.0 mm 0.00 in0.0 mm
10:24 PM 58.7°F14.8°C 52.6°F11.4°C 80% 0.1 mph NNE0.2 kmh NNE 0.4 mph0.6 kmh 30.07 in1018.3 mb 0.00 in0.0 mm 0.00 in0.0 mm 0.00 in0.0 mm
10:29 PM 58.7°F14.8°C 52.9°F11.6°C 81% 0.2 mph NNE0.3 kmh NNE 0.7 mph1.1 kmh 30.07 in1018.3 mb 0.00 in0.0 mm 0.00 in0.0 mm 0.00 in0.0 mm
10:35 PM 58.5°F14.7°C 52.8°F11.6°C 81% 0.1 mph NNE0.2 kmh NNE 0.7 mph1.1 kmh 30.06 in1017.9 mb 0.00 in0.0 mm 0.00 in0.0 mm 0.00 in0.0 mm
10:41 PM 58.5°F14.7°C 52.8°F11.6°C 81% 0.5 mph NNE0.8 kmh NNE 0.9 mph1.4 kmh 30.06 in1017.9 mb 0.00 in0.0 mm 0.00 in0.0 mm 0.00 in0.0 mm
10:46 PM 58.5°F14.7°C 52.8°F11.6°C 81% 0.3 mph NNE0.5 kmh NNE 1.1 mph1.8 kmh 30.06 in1017.9 mb 0.00 in0.0 mm 0.00 in0.0 mm 0.00 in0.0 mm
10:52 PM 58.3°F14.6°C 52.6°F11.4°C 81% Calm Calm 1.1 mph1.8 kmh 30.06 in1017.9 mb 0.00 in0.0 mm 0.00 in0.0 mm 0.00 in0.0 mm
10:57 PM 58.3°F14.6°C 52.6°F11.4°C 81% 0.2 mph NNE0.3 kmh NNE 2.2 mph3.5 kmh 30.06 in1017.9 mb 0.00 in0.0 mm 0.00 in0.0 mm 0.00 in0.0 mm
11:02 PM 58.3°F14.6°C 52.6°F11.4°C 81% 0.1 mph NNE0.2 kmh NNE 2.2 mph3.5 kmh 30.06 in1017.9 mb 0.00 in0.0 mm 0.00 in0.0 mm 0.00 in0.0 mm
11:07 PM 58.1°F14.5°C 52.4°F11.3°C 81% 0.1 mph NNE0.2 kmh NNE 1.3 mph2.1 kmh 30.06 in1017.9 mb 0.00 in0.0 mm 0.00 in0.0 mm 0.00 in0.0 mm
11:13 PM 58.1°F14.5°C 52.4°F11.3°C 81% 0.1 mph NNE0.2 kmh NNE 1.1 mph1.8 kmh 30.06 in1017.9 mb 0.00 in0.0 mm 0.00 in0.0 mm 0.00 in0.0 mm
11:18 PM 58.0°F14.4°C 52.2°F11.2°C 81% 0.4 mph NNE0.6 kmh NNE 1.1 mph1.8 kmh 30.06 in1017.9 mb 0.00 in0.0 mm 0.00 in0.0 mm 0.00 in0.0 mm
11:24 PM 58.0°F14.4°C 52.5°F11.4°C 82% 0.3 mph NNE0.5 kmh NNE 1.1 mph1.8 kmh 30.06 in1017.9 mb 0.00 in0.0 mm 0.00 in0.0 mm 0.00 in0.0 mm
11:29 PM 58.0°F14.4°C 52.5°F11.4°C 82% 0.1 mph NNE0.2 kmh NNE 1.1 mph1.8 kmh 30.06 in1017.9 mb 0.00 in0.0 mm 0.00 in0.0 mm 0.00 in0.0 mm
11:34 PM 58.0°F14.4°C 52.5°F11.4°C 82% 0.1 mph NNE0.2 kmh NNE 0.4 mph0.6 kmh 30.06 in1017.9 mb 0.00 in0.0 mm 0.00 in0.0 mm 0.00 in0.0 mm
11:39 PM 58.0°F14.4°C 52.5°F11.4°C 82% Calm Calm 0.4 mph0.6 kmh 30.06 in1017.9 mb 0.00 in0.0 mm 0.00 in0.0 mm 0.00 in0.0 mm
11:44 PM 57.8°F14.3°C 52.3°F11.3°C 82% 0.4 mph NNE0.6 kmh NNE 0.4 mph0.6 kmh 30.07 in1018.3 mb 0.00 in0.0 mm 0.00 in0.0 mm 0.00 in0.0 mm
11:49 PM 57.8°F14.3°C 52.3°F11.3°C 82% 0.2 mph NNE0.3 kmh NNE 0.4 mph0.6 kmh 30.07 in1018.3 mb 0.00 in0.0 mm 0.00 in0.0 mm 0.00 in0.0 mm
11:55 PM 57.6°F14.2°C 52.1°F11.2°C 82% 0.5 mph NNE0.8 kmh NNE 1.3 mph2.1 kmh 30.07 in1018.3 mb 0.00 in0.0 mm 0.00 in0.0 mm 0.00 in0.0 mm